Time;durP1;ratioP1;P1;durP2;ratioP2;P2;SDS_P1;SDS_P2;PMS_P1;PMS_P2;Temp;Humidity;BMP_temperature;BMP_pressure;BME280_temperature;BME280_humidity;BME280_pressure;Samples;Min_cycle;Max_cycle;Signal;HPM_P1;HPM_P2
2023/06/23 00:00:55;;;;;;;21.55;16.40;;;;;;;14.25;100.00;101693.25;5054094;28;20029;-44
2023/06/23 00:03:20;;;;;;;22.27;17.42;;;;;;;14.19;100.00;101701.75;5053218;28;20024;-44
2023/06/23 00:05:46;;;;;;;22.00;16.70;;;;;;;14.08;100.00;101701.44;5053527;28;20029;-44
2023/06/23 00:08:11;;;;;;;24.27;17.13;;;;;;;14.12;100.00;101699.81;5053895;28;20056;-44
2023/06/23 00:10:36;;;;;;;26.92;19.10;;;;;;;14.13;100.00;101704.16;5052731;28;20033;-43
2023/06/23 00:13:05;;;;;;;25.80;18.92;;;;;;;14.15;100.00;101711.16;5053443;28;20024;-44
2023/06/23 00:15:30;;;;;;;26.88;19.15;;;;;;;14.09;100.00;101708.38;5053560;28;20032;-46
2023/06/23 00:17:56;;;;;;;28.70;19.52;;;;;;;14.07;100.00;101716.94;5053052;28;20028;-43
2023/06/23 00:20:22;;;;;;;23.77;17.63;;;;;;;13.92;100.00;101712.22;5017488;28;1037389;-45
2023/06/23 00:22:47;;;;;;;26.25;18.83;;;;;;;13.98;100.00;101718.44;5054504;28;20040;-43
2023/06/23 00:25:13;;;;;;;28.17;21.20;;;;;;;14.03;100.00;101720.28;5053761;28;20037;-45
2023/06/23 00:27:39;;;;;;;28.90;19.73;;;;;;;13.98;100.00;101728.81;5054044;28;20025;-45
2023/06/23 00:30:06;;;;;;;30.05;20.77;;;;;;;13.94;100.00;101724.38;5054590;28;20032;-44
2023/06/23 00:32:32;;;;;;;27.88;22.00;;;;;;;13.99;100.00;101732.28;5053401;28;20021;-47
2023/06/23 00:34:57;;;;;;;31.02;22.52;;;;;;;14.02;100.00;101732.38;5054368;28;20027;-44
2023/06/23 00:37:23;;;;;;;30.42;22.45;;;;;;;14.00;100.00;101734.03;5054072;28;20033;-43
2023/06/23 00:39:48;;;;;;;29.45;21.75;;;;;;;13.91;100.00;101738.94;5053513;28;20032;-43
2023/06/23 00:42:13;;;;;;;30.35;22.30;;;;;;;13.92;100.00;101736.41;5054114;28;20041;-45
2023/06/23 00:44:39;;;;;;;32.88;23.30;;;;;;;13.94;100.00;101752.00;5054126;28;20063;-44
2023/06/23 00:47:04;;;;;;;32.90;23.25;;;;;;;13.92;100.00;101749.34;5053584;28;20025;-43
2023/06/23 00:49:30;;;;;;;34.13;24.23;;;;;;;13.93;100.00;101745.03;5053945;28;20464;-43
2023/06/23 00:51:58;;;;;;;34.53;24.00;;;;;;;13.91;100.00;101749.31;5053141;28;20033;-44
2023/06/23 00:54:24;;;;;;;33.13;23.08;;;;;;;13.87;100.00;101757.84;5052827;28;20028;-46
2023/06/23 00:56:49;;;;;;;37.13;26.10;;;;;;;13.93;100.00;101760.59;5053911;28;20032;-44
2023/06/23 00:59:15;;;;;;;33.78;25.63;;;;;;;13.90;100.00;101768.28;5054077;28;20104;-44
2023/06/23 01:01:40;;;;;;;37.13;26.58;;;;;;;13.92;100.00;101785.63;5052661;28;20025;-47
2023/06/23 01:04:08;;;;;;;37.58;26.42;;;;;;;13.88;100.00;101788.97;5053981;28;20029;-43
2023/06/23 01:06:46;;;;;;;36.22;27.27;;;;;;;13.92;100.00;101788.22;5052726;28;20024;-43
2023/06/23 01:09:49;;;;;;;38.20;28.00;;;;;;;13.88;100.00;101786.38;5053672;28;20052;-44
2023/06/23 01:12:25;;;;;;;41.05;27.48;;;;;;;13.91;100.00;101795.97;5053706;28;20064;-43
2023/06/23 01:15:09;;;;;;;42.35;28.85;;;;;;;13.86;100.00;101793.22;5052794;28;20510;-45
2023/06/23 01:17:48;;;;;;;36.88;27.38;;;;;;;13.78;100.00;101795.56;5053224;28;20052;-43
2023/06/23 01:20:21;;;;;;;39.03;29.17;;;;;;;13.77;100.00;101786.03;5053510;28;20100;-43
2023/06/23 01:23:16;;;;;;;43.38;30.60;;;;;;;13.82;100.00;101781.88;5052589;28;20033;-43
2023/06/23 01:26:09;;;;;;;43.20;31.17;;;;;;;13.81;100.00;101789.59;5053146;28;20508;-46
2023/06/23 01:28:50;;;;;;;45.95;32.53;;;;;;;13.82;100.00;101807.78;5052598;28;20107;-44
2023/06/23 01:31:31;;;;;;;43.40;30.92;;;;;;;13.78;100.00;101800.75;5053345;28;20017;-43
2023/06/23 01:34:01;;;;;;;44.42;33.42;;;;;;;13.88;100.00;101811.38;5053249;28;20024;-45
2023/06/23 01:36:37;;;;;;;48.25;33.70;;;;;;;13.77;100.00;101814.53;5052419;28;20028;-45
2023/06/23 01:39:07;;;;;;;44.88;33.50;;;;;;;13.73;100.00;101812.66;5053513;28;20029;-43
2023/06/23 01:41:40;;;;;;;43.83;32.53;;;;;;;13.73;100.00;101802.31;5052859;28;20029;-44
2023/06/23 01:44:09;;;;;;;44.72;32.08;;;;;;;13.74;100.00;101806.66;5053171;28;20025;-44
2023/06/23 01:46:36;;;;;;;49.13;34.25;;;;;;;13.67;100.00;101804.69;5052567;28;20112;-44
2023/06/23 01:49:11;;;;;;;48.13;35.63;;;;;;;13.73;100.00;101814.41;5052448;28;20025;-44
2023/06/23 01:51:40;;;;;;;47.63;34.65;;;;;;;13.67;100.00;101812.47;5052792;28;20028;-44
2023/06/23 01:54:08;;;;;;;51.80;36.28;;;;;;;13.75;100.00;101825.66;5053096;28;20021;-44
2023/06/23 01:56:34;;;;;;;56.38;34.60;;;;;;;13.70;100.00;101822.06;5051899;28;20025;-44
2023/06/23 01:59:02;;;;;;;48.87;33.87;;;;;;;13.66;100.00;101826.28;5052865;28;20025;-45
2023/06/23 02:01:31;;;;;;;46.50;33.50;;;;;;;13.55;100.00;101828.50;5052720;28;20032;-45
2023/06/23 02:03:59;;;;;;;50.88;34.72;;;;;;;13.59;100.00;101821.72;5052056;28;20476;-46
2023/06/23 02:06:26;;;;;;;48.35;36.38;;;;;;;13.61;100.00;101825.25;5052867;28;20100;-43
2023/06/23 02:08:52;;;;;;;51.85;36.28;;;;;;;13.68;100.00;101818.53;5052929;28;20025;-44
2023/06/23 02:11:19;;;;;;;51.53;36.40;;;;;;;13.64;100.00;101833.09;5051973;28;20029;-46
2023/06/23 02:13:46;;;;;;;45.78;35.85;;;;;;;13.68;100.00;101844.44;5052259;28;20025;-44
2023/06/23 02:16:13;;;;;;;43.45;34.08;;;;;;;13.62;100.00;101852.88;5052609;28;20424;-46
2023/06/23 02:18:40;;;;;;;45.63;34.42;;;;;;;13.55;100.00;101848.34;5051805;28;20100;-43
2023/06/23 02:21:07;;;;;;;48.83;35.25;;;;;;;13.53;100.00;101847.41;5052498;28;20049;-45
2023/06/23 02:23:34;;;;;;;46.70;34.33;;;;;;;13.58;100.00;101844.16;5052515;28;20033;-42
2023/06/23 02:26:01;;;;;;;50.50;37.45;;;;;;;13.48;100.00;101858.50;5051974;28;20037;-46
2023/06/23 02:28:27;;;;;;;48.15;36.67;;;;;;;13.51;100.00;101862.91;5052434;28;20036;-45
2023/06/23 02:30:53;;;;;;;49.45;37.97;;;;;;;13.47;100.00;101877.44;5051868;28;20025;-44
2023/06/23 02:33:18;;;;;;;55.25;41.03;;;;;;;13.52;100.00;101876.72;5052725;28;20033;-44
2023/06/23 02:35:43;;;;;;;54.20;40.72;;;;;;;13.49;100.00;101880.97;5052176;28;20033;-45
2023/06/23 02:38:12;;;;;;;53.47;41.60;;;;;;;13.49;100.00;101885.25;5051837;28;20040;-43
2023/06/23 02:40:39;;;;;;;56.50;42.50;;;;;;;13.47;100.00;101890.41;5052174;28;20091;-42
2023/06/23 02:43:17;;;;;;;57.63;43.88;;;;;;;13.44;100.00;101887.72;5052442;28;20025;-44
2023/06/23 02:45:47;;;;;;;59.88;43.03;;;;;;;13.40;100.00;101884.94;5051551;28;20107;-44
2023/06/23 02:48:19;;;;;;;60.38;45.92;;;;;;;13.47;100.00;101889.53;5052538;28;20021;-44
2023/06/23 02:50:45;;;;;;;67.63;47.33;;;;;;;13.44;100.00;101892.88;5052048;28;20044;-43
2023/06/23 02:53:18;;;;;;;62.53;45.72;;;;;;;13.39;100.00;101904.78;5051643;28;20071;-43
2023/06/23 02:55:46;;;;;;;63.42;46.65;;;;;;;13.42;100.00;101902.31;5052262;28;20032;-44
2023/06/23 02:58:15;;;;;;;71.07;50.00;;;;;;;13.40;100.00;101901.38;5052425;28;20021;-46
2023/06/23 03:00:42;;;;;;;69.82;49.92;;;;;;;13.40;100.00;101900.47;5051111;28;20029;-43
2023/06/23 03:03:13;;;;;;;69.05;48.47;;;;;;;13.30;100.00;101899.28;5052459;28;20107;-43
2023/06/23 03:05:39;;;;;;;70.40;51.08;;;;;;;13.33;100.00;101900.22;5052122;28;20082;-43
2023/06/23 03:08:07;;;;;;;73.18;53.42;;;;;;;13.39;100.00;101904.78;5051338;28;20025;-44
2023/06/23 03:10:33;;;;;;;80.97;56.67;;;;;;;13.40;100.00;101903.97;5052037;28;20062;-45
2023/06/23 03:13:01;;;;;;;75.90;54.75;;;;;;;13.39;100.00;101903.91;5052096;28;20475;-43
2023/06/23 03:15:28;;;;;;;79.43;55.08;;;;;;;13.36;100.00;101909.81;5054600;28;20025;-43
2023/06/23 03:18:00;;;;;;;79.63;56.15;;;;;;;13.37;100.00;101901.25;5055840;28;20052;-44
2023/06/23 03:20:28;;;;;;;83.90;59.00;;;;;;;13.31;100.00;101901.91;5054389;28;20064;-43
2023/06/23 03:23:00;;;;;;;79.30;55.90;;;;;;;13.27;100.00;101909.50;5055960;28;20053;-45
2023/06/23 03:25:27;;;;;;;78.93;55.80;;;;;;;13.30;100.00;101919.97;5055441;28;20013;-46
2023/06/23 03:27:56;;;;;;;90.03;57.90;;;;;;;13.25;100.00;101917.22;5055025;28;20028;-44
2023/06/23 03:30:28;;;;;;;80.32;57.22;;;;;;;13.22;100.00;101926.56;5055727;28;20021;-48
2023/06/23 03:32:57;;;;;;;90.60;58.90;;;;;;;13.27;100.00;101935.38;5055483;28;20499;-45
2023/06/23 03:35:28;;;;;;;88.38;59.35;;;;;;;13.30;100.00;101930.34;5054579;28;20032;-43
2023/06/23 03:38:01;;;;;;;98.47;63.22;;;;;;;13.33;100.00;101920.06;5055626;28;20049;-45
2023/06/23 03:40:31;;;;;;;93.60;62.20;;;;;;;13.27;100.00;101930.22;5055147;28;20041;-44
2023/06/23 03:43:05;;;;;;;99.18;62.83;;;;;;;13.33;100.00;101935.59;5054435;28;20378;-45
2023/06/23 03:45:33;;;;;;;92.40;62.33;;;;;;;13.31;100.00;101932.06;5055047;28;20039;-45
2023/06/23 03:48:03;;;;;;;93.28;63.35;;;;;;;13.27;100.00;101930.22;5055225;28;20029;-44
2023/06/23 03:50:32;;;;;;;98.28;61.20;;;;;;;13.24;100.00;101920.63;5054228;28;20039;-46
2023/06/23 03:53:01;;;;;;;101.35;63.90;;;;;;;13.29;100.00;101918.22;5055120;28;20029;-47
2023/06/23 03:55:30;;;;;;;100.97;65.47;;;;;;;13.30;100.00;101920.84;5054074;28;20051;-43
2023/06/23 03:57:57;;;;;;;101.60;65.63;;;;;;;13.36;100.00;101930.53;5054992;28;20078;-46
2023/06/23 04:00:23;;;;;;;97.75;64.05;;;;;;;13.38;100.00;101939.28;5054694;28;20548;-44
2023/06/23 04:02:50;;;;;;;106.18;65.63;;;;;;;13.37;100.00;101941.81;5054422;28;20067;-44
2023/06/23 04:05:16;;;;;;;96.23;61.77;;;;;;;13.34;100.00;101951.19;5054870;28;20362;-45
2023/06/23 04:07:44;;;;;;;100.85;63.47;;;;;;;13.41;100.00;101954.91;5054636;28;20021;-47
2023/06/23 04:10:12;;;;;;;101.90;64.32;;;;;;;13.38;100.00;101960.00;5053956;28;20104;-45
2023/06/23 04:12:39;;;;;;;102.97;64.00;;;;;;;13.43;100.00;101963.63;5054442;28;20028;-44
2023/06/23 04:15:07;;;;;;;94.22;59.10;;;;;;;13.37;100.00;101958.22;5055003;28;20021;-46
2023/06/23 04:17:36;;;;;;;99.30;62.58;;;;;;;13.39;100.00;101964.34;5053626;28;20033;-46
2023/06/23 04:20:03;;;;;;;94.47;60.85;;;;;;;13.39;100.00;101966.94;5054568;28;20032;-44
2023/06/23 04:22:30;;;;;;;97.50;63.08;;;;;;;13.49;100.00;101963.84;5054364;28;20180;-47
2023/06/23 04:24:57;;;;;;;97.88;61.83;;;;;;;13.50;100.00;101963.03;5053342;28;20032;-45
2023/06/23 04:27:24;;;;;;;96.93;61.47;;;;;;;13.50;100.00;101963.03;5053729;28;20025;-43
2023/06/23 04:29:51;;;;;;;107.10;63.85;;;;;;;13.61;100.00;101970.31;5054529;28;20025;-47
2023/06/23 04:32:17;;;;;;;111.80;65.82;;;;;;;13.60;100.00;101971.13;5053850;28;20033;-46
2023/06/23 04:34:43;;;;;;;112.55;66.50;;;;;;;13.68;100.00;101974.84;5053979;28;20055;-45
2023/06/23 04:37:16;;;;;;;111.10;67.18;;;;;;;13.75;100.00;101982.03;5054239;28;20472;-47
2023/06/23 04:39:55;;;;;;;115.45;67.20;;;;;;;13.79;100.00;101983.88;5053265;28;20055;-45
2023/06/23 04:42:33;;;;;;;116.22;68.93;;;;;;;13.80;100.00;101983.06;5054462;28;20032;-48
2023/06/23 04:45:01;;;;;;;113.60;68.45;;;;;;;13.91;100.00;101979.97;5053531;28;20025;-44
2023/06/23 04:47:32;;;;;;;121.38;68.15;;;;;;;13.94;100.00;101986.13;5053863;28;20029;-44
2023/06/23 04:50:01;;;;;;;117.72;69.00;;;;;;;13.96;100.00;101987.03;5054235;28;20117;-46
2023/06/23 04:52:30;;;;;;;130.35;71.22;;;;;;;14.03;100.00;101995.91;5052756;28;20381;-46
2023/06/23 04:54:59;;;;;;;128.40;75.10;;;;;;;14.11;100.00;102002.25;5054053;28;20028;-43
2023/06/23 04:57:29;;;;;;;122.25;69.93;;;;;;;14.16;100.00;101999.78;5053803;28;20109;-44
2023/06/23 04:59:57;;;;;;;127.65;72.30;;;;;;;14.23;100.00;101994.00;5053608;28;20032;-45
2023/06/23 05:02:25;;;;;;;129.13;72.93;;;;;;;14.32;100.00;102002.06;5053473;28;20033;-46
2023/06/23 05:04:53;;;;;;;133.70;73.05;;;;;;;14.37;100.00;102001.31;5053990;28;20056;-44
2023/06/23 05:07:21;;;;;;;133.07;73.15;;;;;;;14.42;100.00;102011.03;5053164;28;20032;-46
2023/06/23 05:09:47;;;;;;;;;;;;;;;14.49;100.00;102030.28;5053983;28;20031;-47
2023/06/23 05:12:16;;;;;;;126.95;71.75;;;;;;;14.55;100.00;102025.28;5053628;28;19913;-46
2023/06/23 05:14:43;;;;;;;128.27;73.82;;;;;;;14.65;100.00;102026.47;5052700;28;20036;-44
2023/06/23 05:17:09;;;;;;;;;;;;;;;14.68;100.00;102029.19;5053918;28;20021;-45
2023/06/23 05:19:38;;;;;;;126.57;71.75;;;;;;;14.71;100.00;102018.88;5053337;28;20050;-42
2023/06/23 05:22:08;;;;;;;123.40;70.38;;;;;;;14.77;100.00;102025.97;5053203;28;20037;-49
2023/06/23 05:24:37;;;;;;;124.78;73.07;;;;;;;14.83;100.00;102026.16;5053161;28;20025;-45
2023/06/23 05:27:06;;;;;;;125.68;69.38;;;;;;;14.88;100.00;102028.91;5052622;28;20032;-45
2023/06/23 05:29:36;;;;;;;120.88;71.07;;;;;;;14.98;100.00;102030.97;5052955;28;20074;-48
2023/06/23 05:32:05;;;;;;;120.82;70.00;;;;;;;14.99;100.00;102032.72;5053297;28;20370;-47
2023/06/23 05:34:32;;;;;;;117.22;70.15;;;;;;;15.07;100.00;102040.75;5052521;28;20107;-47
2023/06/23 05:37:01;;;;;;;123.32;67.68;;;;;;;15.14;100.00;102040.97;5053077;28;20075;-46
2023/06/23 05:39:29;;;;;;;117.68;70.78;;;;;;;15.19;100.00;102045.44;5052871;28;20056;-47
2023/06/23 05:41:55;;;;;;;131.05;69.88;;;;;;;15.29;100.00;102042.28;5052346;28;20499;-46
2023/06/23 05:44:20;;;;;;;127.32;69.70;;;;;;;15.34;100.00;102040.69;5053264;28;20467;-48
2023/06/23 05:46:48;;;;;;;106.75;67.18;;;;;;;15.35;100.00;102042.47;5052893;28;20035;-48
2023/06/23 05:49:17;;;;;;;116.95;68.35;;;;;;;15.48;100.00;102043.69;5052504;28;20098;-44
2023/06/23 05:51:44;;;;;;;110.88;65.32;;;;;;;15.46;100.00;102046.22;5052822;28;20111;-47
2023/06/23 05:54:11;;;;;;;109.43;66.27;;;;;;;15.55;100.00;102047.34;5052988;28;20028;-43
2023/06/23 05:56:48;;;;;;;121.10;70.57;;;;;;;15.73;100.00;102058.22;5051821;28;20104;-47
2023/06/23 05:59:28;;;;;;;;;;;;;;;15.78;100.00;102053.19;5053562;28;20040;-45
2023/06/23 06:01:58;;;;;;;122.45;69.50;;;;;;;15.90;100.00;102063.06;5051962;28;20327;-45
2023/06/23 06:04:27;;;;;;;112.93;67.25;;;;;;;15.87;100.00;102062.94;5052772;28;20036;-46
2023/06/23 06:06:56;;;;;;;114.35;68.22;;;;;;;15.91;100.00;102062.22;5052714;28;20036;-49
2023/06/23 06:09:23;;;;;;;113.57;67.95;;;;;;;15.98;100.00;102068.47;5052264;28;20025;-47
2023/06/23 06:11:50;;;;;;;;;;;;;;;16.11;100.00;102073.13;5052963;28;20354;-44
2023/06/23 06:14:18;;;;;;;108.10;67.47;;;;;;;16.15;100.00;102079.31;5052911;28;20014;-44
2023/06/23 06:16:45;;;;;;;111.85;66.82;;;;;;;16.27;100.00;102075.31;5051725;28;20029;-47
2023/06/23 06:19:13;;;;;;;107.63;68.35;;;;;;;16.27;100.00;102079.63;5052591;28;20033;-45
2023/06/23 06:21:41;;;;;;;98.57;64.93;;;;;;;16.21;100.00;102089.88;5052112;28;20049;-45
2023/06/23 06:24:10;;;;;;;94.25;61.55;;;;;;;16.24;100.00;102085.63;5052062;28;20108;-44
2023/06/23 06:26:35;;;;;;;95.90;63.47;;;;;;;16.21;100.00;102084.69;5052426;28;20035;-46
2023/06/23 06:29:05;;;;;;;100.70;63.05;;;;;;;16.28;100.00;102078.78;5052468;28;20042;-44
2023/06/23 06:31:33;;;;;;;100.10;65.68;;;;;;;16.37;100.00;102080.72;5051439;28;20032;-43
2023/06/23 06:34:00;;;;;;;92.97;62.15;;;;;;;16.32;100.00;102079.72;5052493;28;20029;-45
2023/06/23 06:36:29;;;;;;;91.68;63.08;;;;;;;16.35;100.00;102085.91;5052070;28;20461;-49
2023/06/23 06:38:56;;;;;;;90.57;62.85;;;;;;;16.51;100.00;102094.09;5051835;28;20027;-49
2023/06/23 06:41:22;;;;;;;101.53;64.63;;;;;;;16.59;100.00;102102.97;5052533;28;20029;-44
2023/06/23 06:43:49;;;;;;;90.47;61.20;;;;;;;16.65;100.00;102092.72;5052676;28;20294;-47
2023/06/23 06:46:16;;;;;;;86.40;61.87;;;;;;;16.72;100.00;102105.03;5051775;28;20029;-48
2023/06/23 06:48:45;;;;;;;81.32;58.25;;;;;;;16.71;100.00;102113.69;5052397;28;20070;-44
2023/06/23 06:51:12;;;;;;;78.38;55.80;;;;;;;16.78;100.00;102106.91;5055663;28;20032;-43
2023/06/23 06:53:37;;;;;;;86.68;60.60;;;;;;;16.93;100.00;102112.50;5056153;28;20017;-50
2023/06/23 06:56:04;;;;;;;83.60;58.17;;;;;;;16.93;100.00;102119.47;5056326;28;20025;-47
2023/06/23 06:58:30;;;;;;;84.65;60.83;;;;;;;17.12;100.00;102123.38;5055113;28;20458;-42
2023/06/23 07:00:58;;;;;;;76.45;56.42;;;;;;;17.08;100.00;102125.03;5056114;28;20059;-44
2023/06/23 07:03:24;;;;;;;73.72;54.00;;;;;;;17.15;100.00;102119.97;5055786;28;20032;-45
2023/06/23 07:05:50;;;;;;;66.63;51.63;;;;;;;17.15;100.00;102125.19;5055412;28;20033;-49
2023/06/23 07:08:15;;;;;;;73.60;51.38;;;;;;;17.21;100.00;102126.19;5056022;28;20048;-45
2023/06/23 07:10:41;;;;;;;71.03;52.90;;;;;;;17.28;100.00;102132.41;5055726;28;20029;-47
2023/06/23 07:13:06;;;;;;;72.07;53.95;;;;;;;17.44;100.00;102137.13;5055263;28;20105;-47
2023/06/23 07:15:31;;;;;;;71.75;52.88;;;;;;;17.49;100.00;102136.34;5055682;28;20057;-46
2023/06/23 07:17:57;;;;;;;70.03;51.83;;;;;;;17.58;100.00;102141.75;5056041;28;20028;-47
2023/06/23 07:20:22;;;;;;;66.45;49.13;;;;;;;17.56;100.00;102140.84;5054830;28;20049;-48
2023/06/23 07:22:47;;;;;;;66.90;47.53;;;;;;;17.63;100.00;102142.72;5055705;28;20025;-47
2023/06/23 07:25:13;;;;;;;64.47;48.83;;;;;;;17.67;100.00;102147.13;5055904;28;20100;-47
2023/06/23 07:27:38;;;;;;;70.00;49.13;;;;;;;17.82;100.00;102150.91;5054656;28;20028;-47
2023/06/23 07:30:04;;;;;;;61.22;46.65;;;;;;;17.80;100.00;102160.44;5055446;28;20033;-48
2023/06/23 07:32:30;;;;;;;58.90;44.60;;;;;;;17.90;100.00;102162.41;5054932;28;20063;-43
2023/06/23 07:34:55;;;;;;;57.15;44.05;;;;;;;17.95;100.00;102152.97;5054836;28;20059;-45
2023/06/23 07:37:21;;;;;;;57.28;44.28;;;;;;;18.12;100.00;102152.44;5055683;28;20040;-48
2023/06/23 07:39:47;;;;;;;54.85;42.58;;;;;;;18.28;100.00;102151.84;5055070;28;20457;-47
2023/06/23 07:42:12;;;;;;;54.72;42.03;;;;;;;18.41;100.00;102158.16;5054741;28;20037;-48
2023/06/23 07:44:37;;;;;;;49.60;38.72;;;;;;;18.55;100.00;102161.03;5054951;28;20044;-47
2023/06/23 07:47:03;;;;;;;48.80;38.75;;;;;;;18.58;100.00;102167.19;5055212;28;20056;-43
2023/06/23 07:49:29;;;;;;;52.38;38.78;;;;;;;18.60;100.00;102164.59;5054219;28;20021;-48
2023/06/23 07:51:59;;;;;;;45.40;34.70;;;;;;;18.65;100.00;102157.72;5055315;28;20079;-45
2023/06/23 07:54:26;;;;;;;43.13;34.72;;;;;;;18.74;100.00;102164.84;5054303;28;20033;-47
2023/06/23 07:56:52;;;;;;;45.95;37.28;;;;;;;18.78;100.00;102163.16;5055219;28;20092;-46
2023/06/23 07:59:17;;;;;;;49.10;37.92;;;;;;;18.78;100.00;102158.81;5054979;28;20148;-48
2023/06/23 08:01:42;;;;;;;44.63;35.50;;;;;;;18.92;100.00;102161.69;5053562;28;20845;-46
2023/06/23 08:04:08;;;;;;;41.95;33.55;;;;;;;18.94;100.00;102167.81;5055111;28;20025;-47
2023/06/23 08:06:33;;;;;;;42.83;33.92;;;;;;;19.08;100.00;102168.91;5054695;28;20098;-43
2023/06/23 08:08:58;;;;;;;39.33;31.58;;;;;;;19.15;100.00;102171.63;5054345;28;20075;-47
2023/06/23 08:11:24;;;;;;;38.63;29.98;;;;;;;19.18;100.00;102174.28;5054663;28;20484;-46
2023/06/23 08:13:50;;;;;;;36.90;29.55;;;;;;;19.22;100.00;102166.50;5054657;28;20021;-48
2023/06/23 08:16:16;;;;;;;37.25;29.60;;;;;;;19.21;100.00;102169.97;5053923;28;20503;-45
2023/06/23 08:18:41;;;;;;;35.13;29.80;;;;;;;19.31;100.00;102177.94;5054303;28;20021;-47
2023/06/23 08:21:07;;;;;;;35.15;28.95;;;;;;;19.37;100.00;102171.06;5054631;28;20065;-45
2023/06/23 08:23:32;;;;;;;36.03;28.67;;;;;;;19.31;100.00;102173.59;5053620;28;20035;-47
2023/06/23 08:25:58;;;;;;;37.55;28.48;;;;;;;19.62;100.00;102166.16;5054694;28;20024;-47
2023/06/23 08:28:23;;;;;;;33.53;27.48;;;;;;;19.62;100.00;102171.41;5054305;28;20346;-47
2023/06/23 08:30:48;;;;;;;32.08;26.48;;;;;;;19.80;100.00;102164.66;5053678;28;20021;-46
2023/06/23 08:33:14;;;;;;;32.85;26.70;;;;;;;19.89;100.00;102181.34;5054331;28;20035;-47
2023/06/23 08:35:39;;;;;;;31.65;25.55;;;;;;;19.96;100.00;102174.50;5054190;28;20021;-47
2023/06/23 08:38:05;;;;;;;31.98;26.58;;;;;;;20.13;100.00;102181.63;5053738;28;20108;-47
2023/06/23 08:40:30;;;;;;;29.38;25.38;;;;;;;20.23;100.00;102186.09;5054069;28;20358;-44
2023/06/23 08:42:57;;;;;;;28.33;23.70;;;;;;;20.31;100.00;102181.84;5054355;28;20071;-45
2023/06/23 08:45:24;;;;;;;28.95;23.00;;;;;;;20.33;100.00;102179.25;5053292;28;20048;-43
2023/06/23 08:47:54;;;;;;;31.45;24.40;;;;;;;20.42;100.00;102192.41;5054175;28;20048;-44
2023/06/23 08:50:20;;;;;;;31.33;23.45;;;;;;;20.46;100.00;102190.72;5054098;28;20021;-47
2023/06/23 08:52:46;;;;;;;28.13;22.63;;;;;;;20.39;100.00;102197.63;5053076;28;20032;-43
2023/06/23 08:55:12;;;;;;;28.67;23.33;;;;;;;20.69;100.00;102196.19;5054025;28;20024;-43
2023/06/23 08:57:39;;;;;;;23.67;20.20;;;;;;;20.59;100.00;102204.81;5053561;28;20029;-43
2023/06/23 09:00:07;;;;;;;24.23;19.38;;;;;;;20.96;100.00;102199.94;5053461;28;20033;-48
2023/06/23 09:02:32;;;;;;;23.80;19.50;;;;;;;21.12;100.00;102206.16;5053497;28;20520;-46
2023/06/23 09:04:57;;;;;;;22.45;18.38;;;;;;;21.41;100.00;102209.00;5053271;28;20151;-48
2023/06/23 09:07:24;;;;;;;22.33;16.65;;;;;;;21.62;98.51;102207.38;5053619;28;20032;-46
2023/06/23 09:09:50;;;;;;;20.85;16.73;;;;;;;21.80;100.00;102217.97;5053782;28;20025;-47
2023/06/23 09:12:16;;;;;;;22.20;18.17;;;;;;;22.02;100.00;102229.44;5052189;28;20392;-45
2023/06/23 09:14:43;;;;;;;19.10;14.73;;;;;;;22.03;94.86;102215.44;5053221;28;20028;-45
2023/06/23 09:17:10;;;;;;;18.77;14.30;;;;;;;22.15;90.68;102224.22;5053984;28;20021;-46
2023/06/23 09:19:38;;;;;;;19.88;13.75;;;;;;;22.40;94.08;102229.59;5052658;28;20079;-47
2023/06/23 09:22:05;;;;;;;19.60;14.52;;;;;;;22.32;89.50;102222.56;5053375;28;20045;-47
2023/06/23 09:24:40;;;;;;;19.13;14.23;;;;;;;22.54;93.02;102227.84;5053286;28;20055;-49
2023/06/23 09:27:06;;;;;;;18.08;12.80;;;;;;;22.73;95.05;102234.03;5052563;28;20063;-49
2023/06/23 09:29:32;;;;;;;17.42;13.10;;;;;;;22.69;85.92;102225.25;5053322;28;20025;-48
2023/06/23 09:31:59;;;;;;;15.00;13.05;;;;;;;22.94;89.79;102232.28;5053291;28;20028;-48
2023/06/23 09:34:24;;;;;;;18.08;13.32;;;;;;;23.07;83.82;102238.41;5052363;28;20029;-46
2023/06/23 09:36:52;;;;;;;17.58;13.20;;;;;;;23.18;83.04;102236.69;5053173;28;20043;-45
2023/06/23 09:39:18;;;;;;;18.35;13.07;;;;;;;23.52;88.25;102247.16;5053363;28;20028;-49
2023/06/23 09:41:54;;;;;;;16.23;12.80;;;;;;;23.06;82.03;102244.53;5052090;28;20021;-47
2023/06/23 09:44:19;;;;;;;15.38;11.45;;;;;;;23.11;82.65;102250.69;5053330;28;20025;-47
2023/06/23 09:46:45;;;;;;;15.52;10.20;;;;;;;23.23;80.57;102250.72;5052882;28;20024;-45
2023/06/23 09:49:10;;;;;;;17.83;11.85;;;;;;;23.23;82.22;102250.72;5052434;28;20021;-46
2023/06/23 09:51:45;;;;;;;18.30;12.68;;;;;;;23.28;76.08;102248.94;5052813;28;20033;-48
2023/06/23 09:54:11;;;;;;;17.98;10.93;;;;;;;23.46;79.57;102252.41;5052079;28;20028;-46
2023/06/23 09:56:36;;;;;;;17.40;11.48;;;;;;;23.40;76.09;102252.44;5052774;28;20029;-45
2023/06/23 09:59:02;;;;;;;13.38;9.95;;;;;;;23.71;77.32;102247.97;5052999;28;20028;-45
2023/06/23 10:01:27;;;;;;;13.18;10.05;;;;;;;23.99;72.02;102254.06;5051857;28;20029;-49
2023/06/23 10:03:54;;;;;;;15.50;10.52;;;;;;;23.99;70.29;102240.91;5052787;28;20484;-48
2023/06/23 10:06:36;;;;;;;16.25;10.98;;;;;;;24.71;73.04;102244.00;5052945;28;20024;-43
2023/06/23 10:09:11;;;;;;;16.23;10.32;;;;;;;25.48;68.94;102242.50;5051933;28;20369;-47
2023/06/23 10:11:38;;;;;;;14.30;9.48;;;;;;;26.17;68.38;102242.56;5052604;28;20025;-46
2023/06/23 10:14:08;;;;;;;14.23;9.70;;;;;;;26.21;64.74;102249.56;5052855;28;20025;-48
2023/06/23 10:16:35;;;;;;;13.02;9.80;;;;;;;26.63;63.40;102242.75;5051726;28;20017;-46
2023/06/23 10:19:01;;;;;;;11.63;8.48;;;;;;;26.25;62.29;102248.66;5052613;28;20145;-47
2023/06/23 10:21:28;;;;;;;11.25;7.28;;;;;;;27.21;57.28;102248.00;5052160;28;20200;-47
2023/06/23 10:23:54;;;;;;;;;;;;;;;27.00;70.12;102246.63;5054965;28;20476;-47
2023/06/23 10:26:22;;;;;;;11.40;7.90;;;;;;;27.84;53.08;102248.59;5056955;28;20411;-49
2023/06/23 10:28:49;;;;;;;11.18;7.40;;;;;;;28.80;52.09;102249.13;5056791;28;20040;-47
2023/06/23 10:31:16;;;;;;;11.02;6.38;;;;;;;29.12;45.38;102254.56;5056026;28;20033;-48
2023/06/23 10:33:43;;;;;;;12.38;7.65;;;;;;;29.72;44.36;102250.25;5056283;28;20074;-47
2023/06/23 10:36:12;;;;;;;10.63;6.35;;;;;;;29.89;44.92;102250.69;5056127;28;20487;-45
2023/06/23 10:38:42;;;;;;;10.10;7.18;;;;;;;28.86;45.37;102254.28;5056740;28;20028;-48
2023/06/23 10:41:10;;;;;;;14.75;8.68;;;;;;;28.80;44.59;102251.78;5056751;28;20025;-50
2023/06/23 10:43:38;;;;;;;14.05;8.15;;;;;;;28.54;46.57;102253.25;5055438;28;20025;-47
2023/06/23 10:46:04;;;;;;;14.30;8.32;;;;;;;29.11;45.44;102252.81;5056383;28;20029;-44
2023/06/23 10:48:30;;;;;;;11.55;8.68;;;;;;;28.19;47.22;102260.25;5056270;28;20082;-45
2023/06/23 10:50:56;;;;;;;11.23;7.53;;;;;;;29.12;46.17;102260.72;5055712;28;20116;-47
2023/06/23 10:53:30;;;;;;;14.33;8.50;;;;;;;28.97;43.66;102261.13;5056443;28;20476;-49
2023/06/23 10:55:59;;;;;;;11.88;8.65;;;;;;;30.51;42.96;102259.44;5056593;28;20055;-49
2023/06/23 10:58:25;;;;;;;11.00;7.82;;;;;;;30.90;40.67;102259.94;5055210;28;20028;-47
2023/06/23 11:00:53;;;;;;;13.47;7.97;;;;;;;31.15;39.79;102271.53;5056176;28;20041;-47
2023/06/23 11:03:33;;;;;;;14.93;7.30;;;;;;;31.00;43.26;102274.69;5056354;28;20052;-45
2023/06/23 11:06:02;;;;;;;12.25;6.63;;;;;;;31.78;37.86;102267.56;5055685;28;20025;-50
2023/06/23 11:08:39;;;;;;;13.32;7.75;;;;;;;31.53;40.88;102269.31;5055939;28;20029;-48